Terminal Aerodrome Forecast
Issued by NWS Dodge City, KS

Home | Current Version | Previous Version | Text Only | Print | Product List | Glossary On
Versions: 1 2 3 4 5 6 7 8 9 10 11 12 13 14 15 16 17 18 19 20 21 22 23 24 25 26
000
FTUS43 KDDC 292340
TAFDDC
TAF
KDDC 292340Z 3000/3024 18015KT P6SM SCT050
     FM300700 18015G25KT P6SM VCTS BKN040CB
     FM301100 19010KT P6SM BKN070
     FM301800 21014G20KT P6SM SKC=

USA.gov is the U.S. government's official web portal to all federal, state and local government web resources and services.